Time;durP1;ratioP1;P1;durP2;ratioP2;P2;SDS_P1;SDS_P2;PMS_P1;PMS_P2;Temp;Humidity;BMP_temperature;BMP_pressure;BME280_temperature;BME280_humidity;BME280_pressure;Samples;Min_cycle;Max_cycle;Signal;HPM_P1;HPM_P2
2022/12/10 00:01:29;;;;;;;53.03;28.67;;;1.40;99.90;;;;;;5074653;28;20470;-60
2022/12/10 00:03:59;;;;;;;51.53;28.00;;;1.50;99.90;;;;;;5075243;28;20457;-61
2022/12/10 00:06:29;;;;;;;51.10;28.83;;;1.40;99.90;;;;;;5075059;28;20957;-60
2022/12/10 00:08:57;;;;;;;50.10;27.60;;;1.50;99.90;;;;;;5075603;28;20478;-61
2022/12/10 00:11:26;;;;;;;49.63;29.03;;;1.40;99.90;;;;;;5075157;28;20473;-60
2022/12/10 00:13:55;;;;;;;49.57;27.87;;;1.40;99.90;;;;;;5075547;28;20547;-61
2022/12/10 00:16:25;;;;;;;47.73;25.93;;;1.30;99.90;;;;;;5075177;28;20478;-60
2022/12/10 00:18:54;;;;;;;44.83;26.43;;;1.20;99.90;;;;;;5075136;28;20468;-60
2022/12/10 00:21:25;;;;;;;42.33;25.23;;;1.30;99.90;;;;;;5075100;28;20466;-61
2022/12/10 00:23:54;;;;;;;42.17;23.70;;;1.20;99.90;;;;;;5075168;28;20507;-61
2022/12/10 00:26:24;;;;;;;37.33;22.60;;;1.20;99.90;;;;;;5074548;28;20471;-60
2022/12/10 00:28:53;;;;;;;35.83;21.90;;;1.20;99.90;;;;;;5075807;28;20493;-61
2022/12/10 00:31:23;;;;;;;37.77;22.60;;;1.30;99.90;;;;;;5074358;28;20486;-60
2022/12/10 00:33:53;;;;;;;32.73;19.67;;;1.40;99.90;;;;;;5074805;28;20461;-61
2022/12/10 00:36:25;;;;;;;39.83;24.73;;;1.40;99.90;;;;;;5074804;28;20977;-61
2022/12/10 00:38:53;;;;;;;35.40;23.67;;;1.40;99.90;;;;;;5074866;28;20458;-60
2022/12/10 00:41:23;;;;;;;35.30;22.33;;;1.30;99.90;;;;;;5074771;28;20466;-60
2022/12/10 00:43:51;;;;;;;33.40;20.93;;;1.30;99.90;;;;;;5075109;28;20946;-60
2022/12/10 00:46:20;;;;;;;34.13;19.90;;;1.30;99.90;;;;;;5073357;28;20511;-60
2022/12/10 00:48:48;;;;;;;32.13;19.97;;;1.30;99.90;;;;;;5073231;28;20470;-60
2022/12/10 00:51:18;;;;;;;27.53;18.07;;;1.30;99.90;;;;;;5074370;28;20462;-60
2022/12/10 00:53:49;;;;;;;28.93;19.50;;;1.20;99.90;;;;;;5074712;28;20524;-60
2022/12/10 00:56:20;;;;;;;32.13;19.27;;;1.30;99.90;;;;;;5074664;28;20481;-61
2022/12/10 00:58:49;;;;;;;35.97;20.87;;;1.40;99.90;;;;;;5074268;28;20844;-61
2022/12/10 01:01:21;;;;;;;35.00;21.60;;;1.50;99.90;;;;;;5073782;28;20888;-61
2022/12/10 01:03:51;;;;;;;38.50;23.60;;;1.60;99.90;;;;;;5074092;28;20477;-61
2022/12/10 01:06:21;;;;;;;40.93;23.90;;;1.50;99.90;;;;;;5073314;28;20469;-61
2022/12/10 01:08:52;;;;;;;37.30;22.17;;;1.60;99.90;;;;;;5074137;28;20541;-60
2022/12/10 01:11:21;;;;;;;35.77;21.50;;;1.60;99.90;;;;;;5073212;28;20466;-61
2022/12/10 01:13:50;;;;;;;40.07;22.50;;;1.70;99.90;;;;;;5074433;28;20462;-60
2022/12/10 01:16:21;;;;;;;43.17;25.20;;;1.80;99.90;;;;;;5072872;28;20995;-60
2022/12/10 01:18:53;;;;;;;43.00;26.63;;;1.60;99.90;;;;;;5072757;28;20978;-61
2022/12/10 01:21:21;;;;;;;42.70;23.80;;;1.50;99.90;;;;;;5073900;28;20975;-61
2022/12/10 01:23:52;;;;;;;40.43;23.73;;;1.60;99.90;;;;;;5073621;28;20777;-61
2022/12/10 01:26:24;;;;;;;36.87;22.20;;;1.50;99.90;;;;;;5074041;28;20461;-60
2022/12/10 01:28:54;;;;;;;37.30;22.33;;;1.50;99.90;;;;;;5073904;28;20930;-61
2022/12/10 01:31:24;;;;;;;47.00;26.87;;;1.70;99.90;;;;;;5073082;28;20837;-63
2022/12/10 01:33:52;;;;;;;45.67;26.50;;;1.60;99.90;;;;;;5073249;28;20454;-63
2022/12/10 01:36:24;;;;;;;41.27;24.27;;;1.50;99.90;;;;;;5072867;28;20473;-63
2022/12/10 01:38:54;;;;;;;38.10;22.43;;;1.50;99.90;;;;;;5073899;28;20995;-63
2022/12/10 01:41:25;;;;;;;43.70;25.07;;;1.60;99.90;;;;;;5072355;28;20467;-63
2022/12/10 01:43:56;;;;;;;39.33;22.27;;;1.50;99.90;;;;;;5073531;28;20968;-63
2022/12/10 01:46:27;;;;;;;33.87;20.33;;;1.40;99.90;;;;;;5073284;28;20511;-62
2022/12/10 01:48:57;;;;;;;36.87;23.27;;;1.40;99.90;;;;;;5073637;28;20498;-63
2022/12/10 01:51:28;;;;;;;36.53;21.80;;;1.50;99.90;;;;;;5073040;28;20476;-63
2022/12/10 01:53:59;;;;;;;29.97;19.17;;;1.50;99.90;;;;;;5073585;28;20474;-63
2022/12/10 01:56:27;;;;;;;34.53;23.00;;;1.50;99.90;;;;;;5105604;28;20471;-63
2022/12/10 01:58:57;;;;;;;35.80;21.83;;;1.60;99.90;;;;;;5071872;28;20875;-63
2022/12/10 02:01:31;;;;;;;33.57;20.37;;;1.50;99.90;;;;;;5071251;28;20478;-63
2022/12/10 02:04:10;;;;;;;34.40;22.67;;;1.50;99.90;;;;;;5073436;28;20509;-63
2022/12/10 02:06:46;;;;;;;30.70;19.93;;;1.50;99.90;;;;;;5071732;28;20481;-63
2022/12/10 02:09:24;;;;;;;29.47;20.27;;;1.40;99.90;;;;;;5073096;28;20458;-63
2022/12/10 02:12:02;;;;;;;30.27;18.63;;;1.40;99.90;;;;;;5071832;28;20467;-63
2022/12/10 02:14:36;;;;;;;30.00;18.23;;;1.40;99.90;;;;;;5072010;28;20480;-63
2022/12/10 02:17:11;;;;;;;35.80;21.70;;;1.70;99.90;;;;;;5071598;28;20536;-63
2022/12/10 02:20:07;;;;;;;29.03;17.83;;;1.50;99.90;;;;;;5071465;28;20469;-63
2022/12/10 02:22:39;;;;;;;31.97;20.77;;;1.70;99.90;;;;;;5066133;28;20478;-62
2022/12/10 02:25:13;;;;;;;36.33;22.87;;;1.50;99.90;;;;;;5071704;28;20469;-63
2022/12/10 02:27:52;;;;;;;30.60;19.70;;;1.40;99.90;;;;;;5071330;28;20519;-63
2022/12/10 02:30:22;;;;;;;36.03;22.57;;;1.70;99.90;;;;;;5070895;28;20480;-62
2022/12/10 02:32:51;;;;;;;34.73;22.93;;;1.60;99.90;;;;;;5071300;28;20486;-63
2022/12/10 02:35:24;;;;;;;35.00;22.33;;;1.50;99.90;;;;;;5071186;28;20480;-63
2022/12/10 02:37:56;;;;;;;33.70;21.10;;;1.50;99.90;;;;;;5071389;28;20586;-63
2022/12/10 02:40:29;;;;;;;30.47;20.23;;;1.50;99.90;;;;;;5071785;28;20492;-63
2022/12/10 02:42:59;;;;;;;32.37;21.17;;;1.70;99.90;;;;;;5105162;28;20837;-63
2022/12/10 02:45:31;;;;;;;33.03;21.30;;;1.60;99.90;;;;;;5072562;28;20468;-63
2022/12/10 02:48:03;;;;;;;32.33;20.90;;;1.50;99.90;;;;;;5071173;28;20478;-62
2022/12/10 02:50:39;;;;;;;31.37;20.50;;;1.50;99.90;;;;;;5075299;28;20498;-63
2022/12/10 02:53:07;;;;;;;28.60;18.73;;;1.50;99.90;;;;;;5071163;28;20506;-63
2022/12/10 02:55:52;;;;;;;29.17;19.03;;;1.40;99.90;;;;;;5071218;28;20915;-63
2022/12/10 02:58:29;;;;;;;29.93;19.90;;;1.40;99.90;;;;;;5064642;28;20489;-63
2022/12/10 03:01:07;;;;;;;31.17;20.40;;;1.40;99.90;;;;;;5070592;28;20491;-63
2022/12/10 03:03:45;;;;;;;29.00;18.73;;;1.40;99.90;;;;;;5104805;28;20466;-63
2022/12/10 03:06:21;;;;;;;28.33;18.77;;;1.40;99.90;;;;;;5104996;28;20501;-63
2022/12/10 03:08:52;;;;;;;27.07;19.13;;;1.30;99.90;;;;;;5072401;28;20791;-63
2022/12/10 03:11:23;;;;;;;29.33;19.80;;;1.40;99.90;;;;;;5072696;28;20468;-63
2022/12/10 03:13:56;;;;;;;27.63;18.27;;;1.50;99.90;;;;;;5072512;28;20964;-63
2022/12/10 03:16:30;;;;;;;28.67;18.67;;;1.60;99.90;;;;;;5072236;28;20472;-62
2022/12/10 03:19:03;;;;;;;30.47;21.20;;;1.70;99.90;;;;;;5078683;28;21018;-63
2022/12/10 03:21:37;;;;;;;29.60;20.33;;;1.50;99.90;;;;;;5072305;28;20469;-63
2022/12/10 03:24:09;;;;;;;27.57;20.00;;;1.50;99.90;;;;;;5072310;28;20503;-61
2022/12/10 03:26:38;;;;;;;28.37;19.10;;;1.60;99.90;;;;;;5072290;28;20467;-61
2022/12/10 03:29:09;;;;;;;26.83;18.50;;;1.60;99.90;;;;;;5071491;28;20474;-61
2022/12/10 03:31:40;;;;;;;29.00;19.37;;;1.60;99.90;;;;;;5071259;28;20478;-61
2022/12/10 03:34:09;;;;;;;32.57;20.80;;;1.70;99.90;;;;;;5072241;28;20466;-61
2022/12/10 03:36:39;;;;;;;27.53;18.73;;;1.60;99.90;;;;;;5072055;28;20466;-61
2022/12/10 03:39:09;;;;;;;31.97;20.17;;;1.60;99.90;;;;;;5072098;28;20481;-61
2022/12/10 03:41:37;;;;;;;26.30;18.03;;;1.70;99.90;;;;;;5072272;28;20523;-61
2022/12/10 03:44:05;;;;;;;27.33;17.47;;;1.70;99.90;;;;;;5072322;28;20989;-60
2022/12/10 03:46:34;;;;;;;32.27;21.17;;;1.70;99.90;;;;;;5071811;28;20463;-60
2022/12/10 03:49:04;;;;;;;30.23;20.23;;;1.70;99.90;;;;;;5078119;28;20465;-61
2022/12/10 03:51:32;;;;;;;28.93;20.20;;;1.60;99.90;;;;;;5071684;28;20474;-60
2022/12/10 03:54:00;;;;;;;24.93;16.53;;;1.50;99.90;;;;;;5071969;28;20524;-61
2022/12/10 03:56:28;;;;;;;24.53;15.70;;;1.40;99.90;;;;;;5071687;28;20461;-60
2022/12/10 03:58:56;;;;;;;24.40;15.00;;;1.40;99.90;;;;;;5072099;28;20618;-61
2022/12/10 04:01:24;;;;;;;21.80;14.37;;;1.40;99.90;;;;;;5074669;28;20473;-61
2022/12/10 04:03:52;;;;;;;21.90;15.13;;;1.60;99.90;;;;;;5075160;28;20560;-61
2022/12/10 04:06:21;;;;;;;21.97;15.90;;;1.50;99.90;;;;;;5075478;28;20462;-61
2022/12/10 04:08:50;;;;;;;23.50;16.27;;;1.70;99.90;;;;;;5075661;28;20956;-60
2022/12/10 04:11:26;;;;;;;21.43;15.17;;;1.60;99.90;;;;;;5075599;28;20472;-61
2022/12/10 04:16:40;;;;;;;24.80;16.73;;;1.90;99.90;;;;;;5075448;28;20466;-60
2022/12/10 04:19:10;;;;;;;25.33;17.60;;;1.80;99.90;;;;;;5081468;28;20486;-61
2022/12/10 04:27:19;;;;;;;25.53;17.53;;;2.00;99.90;;;;;;5075216;28;20970;-63
2022/12/10 04:29:47;;;;;;;28.00;19.20;;;2.00;99.90;;;;;;5074962;28;20587;-63
2022/12/10 04:32:15;;;;;;;27.17;22.63;;;2.00;99.90;;;;;;5073394;28;20802;-63
2022/12/10 04:34:44;;;;;;;24.43;17.70;;;1.70;99.90;;;;;;5075084;28;20237;-62
2022/12/10 04:37:14;;;;;;;25.83;18.63;;;1.60;99.90;;;;;;5074901;28;20493;-63
2022/12/10 04:39:42;;;;;;;24.23;16.50;;;1.50;99.90;;;;;;5074942;28;20494;-63
2022/12/10 04:42:10;;;;;;;20.77;13.70;;;1.50;99.90;;;;;;5075134;28;20983;-63
2022/12/10 04:44:38;;;;;;;18.83;13.83;;;1.50;99.90;;;;;;5074625;28;20471;-63
2022/12/10 04:47:08;;;;;;;19.20;13.43;;;1.40;99.90;;;;;;5082243;28;20487;-63
2022/12/10 04:49:36;;;;;;;20.70;14.30;;;1.40;99.90;;;;;;5069755;28;20474;-63
2022/12/10 04:52:04;;;;;;;22.20;14.67;;;1.40;99.90;;;;;;5074572;28;20886;-63
2022/12/10 04:54:34;;;;;;;20.63;14.00;;;1.40;99.90;;;;;;5074702;28;20527;-63
2022/12/10 04:57:06;;;;;;;22.33;14.07;;;1.40;99.90;;;;;;5089240;28;20468;-63
2022/12/10 04:59:36;;;;;;;19.83;13.57;;;1.40;99.90;;;;;;5094365;28;20496;-63
2022/12/10 05:02:04;;;;;;;19.73;13.13;;;1.40;99.90;;;;;;5092996;28;21027;-63
2022/12/10 05:04:32;;;;;;;19.90;13.57;;;1.50;99.90;;;;;;5089266;28;20481;-63
2022/12/10 05:07:00;;;;;;;22.53;15.83;;;1.40;99.90;;;;;;5094202;28;20524;-63
2022/12/10 05:09:28;;;;;;;22.80;15.33;;;1.40;99.90;;;;;;5094182;28;20495;-63
2022/12/10 05:11:58;;;;;;;23.83;16.27;;;1.40;99.90;;;;;;5094316;28;20968;-63
2022/12/10 05:14:26;;;;;;;21.80;15.43;;;1.40;99.90;;;;;;5094349;28;20461;-63
2022/12/10 05:16:54;;;;;;;22.27;16.23;;;1.50;99.90;;;;;;5084766;28;20991;-63
2022/12/10 05:19:23;;;;;;;26.77;17.73;;;1.50;99.90;;;;;;5074233;28;20479;-63
2022/12/10 05:24:37;;;;;;;24.47;17.20;;;1.50;99.90;;;;;;5073592;28;20481;-60
2022/12/10 05:27:06;;;;;;;23.77;16.57;;;1.60;99.90;;;;;;5073352;28;20450;-61
2022/12/10 05:29:34;;;;;;;25.60;18.50;;;1.50;99.90;;;;;;5073943;28;21006;-61
2022/12/10 05:32:04;;;;;;;25.97;18.30;;;1.50;99.90;;;;;;5071717;28;20481;-61
2022/12/10 05:34:32;;;;;;;25.00;17.70;;;1.50;99.90;;;;;;5073518;28;20462;-61
2022/12/10 05:37:00;;;;;;;22.77;17.43;;;1.40;99.90;;;;;;5073768;28;20515;-61
2022/12/10 05:39:29;;;;;;;24.50;18.00;;;1.40;99.90;;;;;;5073659;28;20485;-61
2022/12/10 05:41:57;;;;;;;21.80;15.20;;;1.40;99.90;;;;;;5073950;28;20803;-61
2022/12/10 05:44:27;;;;;;;21.07;15.83;;;1.40;99.90;;;;;;5075895;28;20823;-60
2022/12/10 05:46:55;;;;;;;20.93;14.90;;;1.40;99.90;;;;;;5080561;28;20469;-61
2022/12/10 05:49:23;;;;;;;23.87;16.60;;;1.60;99.90;;;;;;5073795;28;20473;-61
2022/12/10 05:51:51;;;;;;;25.00;17.77;;;1.40;99.90;;;;;;5072679;28;20485;-60
2022/12/10 05:54:19;;;;;;;20.97;15.83;;;1.50;99.90;;;;;;5073637;28;20881;-61
2022/12/10 05:56:47;;;;;;;23.33;16.67;;;1.50;99.90;;;;;;5072945;28;20473;-60
2022/12/10 05:59:15;;;;;;;22.33;16.27;;;1.50;99.90;;;;;;5073020;28;20875;-60
2022/12/10 06:01:46;;;;;;;25.03;18.07;;;1.40;99.90;;;;;;5072701;28;20472;-61
2022/12/10 06:04:14;;;;;;;23.57;17.33;;;1.40;99.90;;;;;;5073202;28;20476;-61
2022/12/10 06:06:42;;;;;;;26.13;17.53;;;1.40;99.90;;;;;;5072963;28;20501;-61
2022/12/10 06:09:13;;;;;;;20.27;15.47;;;1.30;99.90;;;;;;5073198;28;20468;-61
2022/12/10 06:11:42;;;;;;;21.43;14.87;;;1.30;99.90;;;;;;5071315;28;20473;-58
2022/12/10 06:14:11;;;;;;;22.03;15.20;;;1.30;99.90;;;;;;5072956;28;20470;-63
2022/12/10 06:16:41;;;;;;;18.87;13.93;;;1.20;99.90;;;;;;5079950;28;20471;-63
2022/12/10 06:19:10;;;;;;;20.73;15.40;;;1.30;99.90;;;;;;5064919;28;20471;-63
2022/12/10 06:21:38;;;;;;;17.43;13.90;;;1.30;99.90;;;;;;5072824;28;20465;-63
2022/12/10 06:24:07;;;;;;;20.83;14.80;;;1.20;99.90;;;;;;5072547;28;20466;-63
2022/12/10 06:26:35;;;;;;;16.80;12.47;;;1.20;99.90;;;;;;5072599;28;20466;-63
2022/12/10 06:29:04;;;;;;;17.10;13.47;;;1.20;99.90;;;;;;5080634;28;20855;-62
2022/12/10 06:31:32;;;;;;;17.03;12.43;;;1.20;99.90;;;;;;5090173;28;20975;-63
2022/12/10 06:34:00;;;;;;;16.80;12.13;;;1.20;99.90;;;;;;5074045;28;20548;-63
2022/12/10 06:36:30;;;;;;;16.37;12.70;;;1.30;99.90;;;;;;5072567;28;20508;-63
2022/12/10 06:38:58;;;;;;;18.70;13.53;;;1.20;99.90;;;;;;5072673;28;21014;-63
2022/12/10 06:41:26;;;;;;;20.70;13.43;;;1.20;99.90;;;;;;5072821;28;20502;-63
2022/12/10 06:43:57;;;;;;;21.47;15.93;;;1.30;99.90;;;;;;5072711;28;20465;-63
2022/12/10 06:46:27;;;;;;;19.87;14.60;;;1.50;99.90;;;;;;5079821;28;20553;-63
2022/12/10 06:48:55;;;;;;;22.50;15.97;;;1.70;99.90;;;;;;5072541;28;20466;-63
2022/12/10 06:51:23;;;;;;;24.33;17.53;;;1.50;99.90;;;;;;5072505;28;20451;-60
2022/12/10 06:53:53;;;;;;;21.47;16.80;;;1.50;99.90;;;;;;5072874;28;20473;-61
2022/12/10 06:56:21;;;;;;;22.27;16.57;;;1.40;99.90;;;;;;5072694;28;20474;-60
2022/12/10 06:58:49;;;;;;;19.97;15.63;;;1.30;99.90;;;;;;5072607;28;20851;-60
2022/12/10 07:01:20;;;;;;;19.93;15.33;;;1.30;99.90;;;;;;5071698;28;20478;-61
2022/12/10 07:03:50;;;;;;;23.33;16.23;;;1.30;99.90;;;;;;5072320;28;20458;-60
2022/12/10 07:06:20;;;;;;;20.23;14.93;;;1.30;99.90;;;;;;5072727;28;20469;-61
2022/12/10 07:08:49;;;;;;;21.10;14.20;;;1.30;99.90;;;;;;5072236;28;20470;-61
2022/12/10 07:11:21;;;;;;;19.73;14.90;;;1.20;99.90;;;;;;5072458;28;20548;-60
2022/12/10 07:13:49;;;;;;;19.93;14.83;;;1.20;99.90;;;;;;5071348;28;20473;-60
2022/12/10 07:16:19;;;;;;;21.80;15.03;;;1.40;99.90;;;;;;5079387;28;20491;-60
2022/12/10 07:18:48;;;;;;;19.93;13.80;;;1.30;99.90;;;;;;5072522;28;20962;-60
2022/12/10 07:21:21;;;;;;;21.10;14.53;;;1.20;99.90;;;;;;5072268;28;20576;-60
2022/12/10 07:23:49;;;;;;;24.83;17.60;;;1.40;99.90;;;;;;5072170;28;20450;-61
2022/12/10 07:26:19;;;;;;;22.07;16.47;;;1.50;99.90;;;;;;5072363;28;20466;-60
2022/12/10 07:28:47;;;;;;;26.97;19.10;;;1.50;99.90;;;;;;5071948;28;20937;-60
2022/12/10 07:31:22;;;;;;;26.37;18.97;;;1.50;99.90;;;;;;5071371;28;20552;-60
2022/12/10 07:33:52;;;;;;;26.83;19.43;;;1.70;99.90;;;;;;5072074;28;20468;-60
2022/12/10 07:36:22;;;;;;;25.40;17.80;;;1.60;99.90;;;;;;5075716;28;20471;-60
2022/12/10 07:38:50;;;;;;;30.13;20.87;;;1.50;99.90;;;;;;5076062;28;20462;-60
2022/12/10 07:41:20;;;;;;;31.47;21.53;;;1.60;99.90;;;;;;5075586;28;20547;-59
2022/12/10 07:43:49;;;;;;;29.53;21.20;;;1.50;99.90;;;;;;5075805;28;20481;-61
2022/12/10 07:46:19;;;;;;;28.47;21.00;;;1.40;99.90;;;;;;5083006;28;20915;-60
2022/12/10 07:48:49;;;;;;;30.00;20.83;;;1.40;99.90;;;;;;5075579;28;20794;-61
2022/12/10 07:51:20;;;;;;;28.10;19.23;;;1.40;99.90;;;;;;5075568;28;20464;-60
2022/12/10 07:53:48;;;;;;;29.43;21.10;;;1.50;99.90;;;;;;5075604;28;20465;-60
2022/12/10 07:56:16;;;;;;;28.03;19.83;;;1.40;99.90;;;;;;5075777;28;20826;-60
2022/12/10 07:58:46;;;;;;;30.00;21.30;;;1.30;99.90;;;;;;5075442;28;20457;-61
2022/12/10 08:01:17;;;;;;;30.33;21.87;;;1.30;99.90;;;;;;5075113;28;20845;-60
2022/12/10 08:03:45;;;;;;;35.30;23.37;;;1.40;99.90;;;;;;5075174;28;20472;-60
2022/12/10 08:06:17;;;;;;;33.63;24.60;;;1.40;99.90;;;;;;5075446;28;20477;-60
2022/12/10 08:08:46;;;;;;;30.23;20.90;;;1.40;99.90;;;;;;5075383;28;21000;-60
2022/12/10 08:11:16;;;;;;;29.80;20.03;;;1.30;99.90;;;;;;5075498;28;20470;-60
2022/12/10 08:13:45;;;;;;;29.27;20.10;;;1.40;99.90;;;;;;5075201;28;20465;-63
2022/12/10 08:16:24;;;;;;;31.87;21.50;;;1.50;99.90;;;;;;5078634;28;20469;-62
2022/12/10 08:18:53;;;;;;;28.23;20.47;;;1.50;99.90;;;;;;5075112;28;20466;-60
2022/12/10 08:21:26;;;;;;;28.77;19.77;;;1.40;99.90;;;;;;5093344;28;20575;-60
2022/12/10 08:23:55;;;;;;;27.13;19.00;;;1.40;99.90;;;;;;5095467;28;20464;-60
2022/12/10 08:26:25;;;;;;;28.17;19.60;;;1.30;99.90;;;;;;5078743;28;20476;-60
2022/12/10 08:28:56;;;;;;;24.97;18.60;;;1.40;99.90;;;;;;5075351;28;20473;-61
2022/12/10 08:31:25;;;;;;;24.63;18.40;;;1.40;99.90;;;;;;5074123;28;20520;-60
2022/12/10 08:33:54;;;;;;;25.57;19.07;;;1.30;99.90;;;;;;5074733;28;20462;-60
2022/12/10 08:36:23;;;;;;;29.07;20.13;;;1.30;99.90;;;;;;5074923;28;20473;-60
2022/12/10 08:38:51;;;;;;;25.20;18.57;;;1.30;99.90;;;;;;5074841;28;20461;-60
2022/12/10 08:41:21;;;;;;;25.00;18.23;;;1.40;99.90;;;;;;5074721;28;20498;-60
2022/12/10 08:43:52;;;;;;;26.57;19.43;;;1.30;99.90;;;;;;5074419;28;20480;-62
2022/12/10 08:46:23;;;;;;;27.10;20.03;;;1.40;99.90;;;;;;5088088;28;20476;-63
2022/12/10 08:48:51;;;;;;;27.83;20.03;;;1.50;99.90;;;;;;5084905;28;20946;-63
2022/12/10 08:51:21;;;;;;;28.30;20.20;;;1.50;99.90;;;;;;5094560;28;20988;-62
2022/12/10 08:53:49;;;;;;;27.37;20.60;;;1.40;99.90;;;;;;5094154;28;20469;-63
2022/12/10 08:56:17;;;;;;;26.10;19.37;;;1.40;99.90;;;;;;5092735;28;20481;-63
2022/12/10 08:58:45;;;;;;;27.03;19.73;;;1.30;99.90;;;;;;5091494;28;20476;-63
2022/12/10 09:01:16;;;;;;;27.10;19.60;;;1.40;99.90;;;;;;5081674;28;20498;-63
2022/12/10 09:03:45;;;;;;;27.90;20.03;;;1.40;99.90;;;;;;5072585;28;20482;-60
2022/12/10 09:06:16;;;;;;;26.40;18.37;;;1.40;99.90;;;;;;5082849;28;20903;-61
2022/12/10 09:08:44;;;;;;;34.83;25.00;;;1.60;99.90;;;;;;5094685;28;20466;-63
2022/12/10 09:11:15;;;;;;;31.87;24.87;;;1.70;99.90;;;;;;5094345;28;20976;-63
2022/12/10 09:13:44;;;;;;;41.00;31.00;;;1.60;99.90;;;;;;5085226;28;20466;-63
2022/12/10 09:16:12;;;;;;;36.53;26.37;;;1.70;99.90;;;;;;5075215;28;20474;-63
2022/12/10 09:18:41;;;;;;;44.73;30.97;;;1.60;99.90;;;;;;5073927;28;20949;-63
2022/12/10 09:21:13;;;;;;;40.93;29.33;;;1.50;99.90;;;;;;5073927;28;20512;-63
2022/12/10 09:23:42;;;;;;;68.20;43.43;;;1.50;99.90;;;;;;5073935;28;20455;-63
2022/12/10 09:26:12;;;;;;;39.70;26.33;;;1.50;99.90;;;;;;5073877;28;20543;-60
2022/12/10 09:28:41;;;;;;;41.70;28.80;;;1.80;99.90;;;;;;5073836;28;20946;-60
2022/12/10 09:31:10;;;;;;;37.63;26.37;;;1.70;99.90;;;;;;5072982;28;20462;-60
2022/12/10 09:33:46;;;;;;;33.37;24.50;;;1.60;99.90;;;;;;5073426;28;20506;-60
2022/12/10 09:36:16;;;;;;;33.60;24.20;;;1.70;99.90;;;;;;5073735;28;20481;-60
2022/12/10 09:38:45;;;;;;;32.50;22.50;;;1.60;99.90;;;;;;5073557;28;20485;-60
2022/12/10 09:41:30;;;;;;;33.30;24.43;;;1.60;99.90;;;;;;5073889;28;20486;-63
2022/12/10 09:44:04;;;;;;;30.57;24.00;;;1.60;99.90;;;;;;5073699;28;20462;-63
2022/12/10 09:46:47;;;;;;;31.77;23.77;;;1.50;99.90;;;;;;5073746;28;20473;-63
2022/12/10 09:49:24;;;;;;;32.77;24.07;;;1.60;99.90;;;;;;5073653;28;20458;-63
2022/12/10 09:51:58;;;;;;;31.00;23.83;;;1.70;99.90;;;;;;5084804;28;20469;-62
2022/12/10 09:54:30;;;;;;;31.63;21.93;;;1.60;99.90;;;;;;5073465;28;20468;-63
2022/12/10 09:57:00;;;;;;;26.57;20.70;;;1.70;99.90;;;;;;5073076;28;20461;-63
2022/12/10 09:59:33;;;;;;;30.50;21.33;;;1.60;99.90;;;;;;5073453;28;20470;-63
2022/12/10 10:02:13;;;;;;;30.47;21.37;;;1.60;99.90;;;;;;5082772;28;20509;-62
2022/12/10 10:04:41;;;;;;;28.03;20.80;;;1.60;99.90;;;;;;5089103;28;20540;-63
2022/12/10 10:07:17;;;;;;;30.27;20.93;;;1.60;99.90;;;;;;5087817;28;20478;-63
2022/12/10 10:09:46;;;;;;;29.30;21.00;;;1.50;99.90;;;;;;5080123;28;20964;-63
2022/12/10 10:12:15;;;;;;;29.03;21.60;;;1.50;99.90;;;;;;5073236;28;20865;-62
2022/12/10 10:14:44;;;;;;;26.63;19.10;;;1.60;99.90;;;;;;5073166;28;20471;-63
2022/12/10 10:17:17;;;;;;;27.80;19.93;;;1.60;99.90;;;;;;5073272;28;20469;-62
2022/12/10 10:19:45;;;;;;;21.17;14.67;;;1.60;99.90;;;;;;5072962;28;20461;-60
2022/12/10 10:22:15;;;;;;;17.73;13.00;;;1.60;99.90;;;;;;5072841;28;20489;-62
2022/12/10 10:24:45;;;;;;;17.93;13.20;;;1.60;99.90;;;;;;5072905;28;20551;-62
2022/12/10 10:27:16;;;;;;;17.23;12.77;;;1.60;99.90;;;;;;5072864;28;20465;-63
2022/12/10 10:29:45;;;;;;;17.13;12.93;;;1.60;99.90;;;;;;5072745;28;20975;-62
2022/12/10 10:32:18;;;;;;;19.37;14.00;;;1.60;99.90;;;;;;5072261;28;20860;-62
2022/12/10 10:34:53;;;;;;;22.83;16.57;;;1.60;99.90;;;;;;5072906;28;20478;-63
2022/12/10 10:37:26;;;;;;;22.50;16.60;;;1.60;99.90;;;;;;5082164;28;20456;-62
2022/12/10 10:39:55;;;;;;;22.87;16.50;;;1.60;99.90;;;;;;5091728;28;20521;-63
2022/12/10 10:42:33;;;;;;;23.53;16.97;;;1.60;99.90;;;;;;5092329;28;20493;-63
2022/12/10 10:45:03;;;;;;;22.40;16.40;;;1.80;99.90;;;;;;5087176;28;20968;-62
2022/12/10 10:47:33;;;;;;;19.60;14.20;;;1.70;99.90;;;;;;5091813;28;20463;-62
2022/12/10 10:50:04;;;;;;;19.80;14.00;;;1.70;99.90;;;;;;5089453;28;20469;-62
2022/12/10 10:52:37;;;;;;;18.43;13.23;;;1.70;99.90;;;;;;5091691;28;20468;-62
2022/12/10 10:55:26;;;;;;;20.53;13.03;;;1.60;99.90;;;;;;5086816;28;20511;-62
2022/12/10 10:57:54;;;;;;;18.53;13.27;;;1.60;99.90;;;;;;5089253;28;20480;-63
2022/12/10 11:00:23;;;;;;;20.93;14.23;;;1.70;99.90;;;;;;5091561;28;20461;-62
2022/12/10 11:02:52;;;;;;;22.80;15.03;;;1.70;99.90;;;;;;5084253;28;20567;-62
2022/12/10 11:05:25;;;;;;;22.07;14.93;;;1.80;99.90;;;;;;5087289;28;20503;-63
2022/12/10 11:08:04;;;;;;;21.37;15.03;;;1.80;99.90;;;;;;5084778;28;20470;-62
2022/12/10 11:10:33;;;;;;;21.67;15.70;;;1.80;99.90;;;;;;5094952;28;20466;-63
2022/12/10 11:13:06;;;;;;;19.23;14.00;;;1.70;99.90;;;;;;5056474;28;20468;-62
2022/12/10 11:15:36;;;;;;;18.07;12.83;;;1.70;99.90;;;;;;5056613;28;20467;-63
2022/12/10 11:18:22;;;;;;;18.23;13.13;;;1.70;99.90;;;;;;5068482;28;20461;-62
2022/12/10 11:20:58;;;;;;;18.30;12.80;;;1.70;99.90;;;;;;5074697;28;20476;-62
2022/12/10 11:23:32;;;;;;;21.50;13.90;;;1.70;99.90;;;;;;5075657;28;20489;-61
2022/12/10 11:26:12;;;;;;;22.17;15.07;;;1.80;99.90;;;;;;5074863;28;20861;-63
2022/12/10 11:28:49;;;;;;;21.93;15.50;;;1.90;99.90;;;;;;5076235;28;20949;-62
2022/12/10 11:31:32;;;;;;;25.00;17.47;;;1.90;99.90;;;;;;5075610;28;20995;-62
2022/12/10 11:34:09;;;;;;;24.80;17.03;;;1.80;99.90;;;;;;5076190;28;20822;-62
2022/12/10 11:36:46;;;;;;;21.17;15.83;;;1.80;99.90;;;;;;5075831;28;20469;-62
2022/12/10 11:39:33;;;;;;;23.33;15.93;;;1.80;99.90;;;;;;5076712;28;20461;-62
2022/12/10 11:42:09;;;;;;;22.07;14.93;;;1.80;99.90;;;;;;5076123;28;20528;-62
2022/12/10 11:44:44;;;;;;;19.77;15.70;;;1.80;99.90;;;;;;5076131;28;20527;-62
2022/12/10 11:47:31;;;;;;;19.00;14.07;;;1.70;99.90;;;;;;5076092;28;20474;-62
2022/12/10 11:50:13;;;;;;;19.87;14.03;;;1.90;99.90;;;;;;5075859;28;20466;-62
2022/12/10 11:52:58;;;;;;;18.20;13.47;;;1.80;99.90;;;;;;5075462;28;20482;-62
2022/12/10 11:55:39;;;;;;;19.13;12.80;;;1.80;99.90;;;;;;5076972;28;20461;-62
2022/12/10 11:58:27;;;;;;;18.30;13.20;;;1.70;99.90;;;;;;5075953;28;20465;-62
2022/12/10 12:01:01;;;;;;;19.97;13.73;;;1.70;99.90;;;;;;5059902;28;20491;-63
2022/12/10 12:03:52;;;;;;;21.47;14.77;;;1.70;99.90;;;;;;5075490;28;20486;-62
2022/12/10 12:06:45;;;;;;;21.47;15.17;;;1.70;99.90;;;;;;5075198;28;20473;-62
2022/12/10 12:09:29;;;;;;;20.37;14.90;;;1.70;99.90;;;;;;5075517;28;20457;-62
2022/12/10 12:12:15;;;;;;;21.33;14.70;;;1.60;99.90;;;;;;5075436;28;20449;-62
2022/12/10 12:14:47;;;;;;;23.60;17.23;;;1.70;99.90;;;;;;5075522;28;20866;-62
2022/12/10 12:17:20;;;;;;;24.00;17.20;;;1.70;99.90;;;;;;5075343;28;20461;-62
2022/12/10 12:19:53;;;;;;;26.53;19.07;;;1.60;99.90;;;;;;5075027;28;20474;-60
2022/12/10 12:22:25;;;;;;;23.20;16.70;;;1.60;99.90;;;;;;5081361;28;20449;-62
2022/12/10 12:24:58;;;;;;;20.23;14.03;;;1.60;99.90;;;;;;5091485;28;20466;-62
2022/12/10 12:27:33;;;;;;;20.87;14.43;;;1.70;99.90;;;;;;5075144;28;20970;-62
2022/12/10 12:30:06;;;;;;;25.93;18.70;;;1.60;99.90;;;;;;5075307;28;20549;-62
2022/12/10 12:32:47;;;;;;;25.40;18.00;;;1.60;99.90;;;;;;5074058;28;20478;-62
2022/12/10 12:35:19;;;;;;;25.63;18.23;;;1.60;99.90;;;;;;5056128;28;20521;-62
2022/12/10 12:37:55;;;;;;;19.47;13.73;;;1.60;99.90;;;;;;5060881;28;20898;-62
2022/12/10 12:40:30;;;;;;;19.07;14.13;;;1.60;99.90;;;;;;5074747;28;20466;-62
2022/12/10 12:43:03;;;;;;;19.53;13.77;;;1.60;99.90;;;;;;5074817;28;20488;-62
2022/12/10 12:45:37;;;;;;;17.20;13.00;;;1.60;99.90;;;;;;5079704;28;20514;-62
2022/12/10 12:48:17;;;;;;;18.67;13.60;;;1.60;99.90;;;;;;5091066;28;20472;-62
2022/12/10 12:50:47;;;;;;;18.90;14.37;;;1.60;99.90;;;;;;5094815;28;20450;-62
2022/12/10 12:53:18;;;;;;;18.27;13.27;;;1.50;99.90;;;;;;5081003;28;20489;-62
2022/12/10 12:55:57;;;;;;;19.60;13.23;;;1.50;99.90;;;;;;5074328;28;20891;-62
2022/12/10 12:58:35;;;;;;;19.67;13.87;;;1.60;99.90;;;;;;5074637;28;20485;-62
2022/12/10 13:01:14;;;;;;;17.93;13.87;;;1.50;99.90;;;;;;5074640;28;20489;-62
2022/12/10 13:03:45;;;;;;;17.00;12.37;;;1.50;99.90;;;;;;5072804;28;20473;-62
2022/12/10 13:06:17;;;;;;;18.77;14.13;;;1.50;99.90;;;;;;5054472;28;20466;-62
2022/12/10 13:08:48;;;;;;;21.63;14.03;;;1.50;99.90;;;;;;5083533;28;20544;-62